Macedonia, Mississippi
Current Conditions -  °F | °C
As of 9:53 AM on Monday 24 Nov 2014 (Local Time) from KHBG Reporting Station
Clear Clear  
Wind Chill: 67°   Ceiling: Unl
Heat Index: 67°   Visibility: 10mi
Dew Point: 55°   Wind: 15mph
Humidity: 66%   Direction: 310°NW
Pressure: 29.9"   Gusts: NA
Location:  31.1996°N, 89.2694°W
Report Text: KHBG 241553Z AUTO 31013KT 10SM CLR 19/13 A2990 RMK AO2 SLP121 T01940128
Loading
Personal Weather Stations






























Interactive Weather Map New forecast layout! Learn more

10-Day Weather Forecast

Advertisements
Track Severe Weather on mobile